sensor_id;sensor_type;location;lat;lon;timestamp;P1;durP1;ratioP1;P2;durP2;ratioP2
6985;SDS011;3533;51.246;6.850;2022-08-11T00:01:54;2.90;;;2.70;;
6985;SDS011;3533;51.246;6.850;2022-08-11T00:04:23;2.97;;;2.77;;
6985;SDS011;3533;51.246;6.850;2022-08-11T00:06:50;2.80;;;2.70;;
6985;SDS011;3533;51.246;6.850;2022-08-11T00:09:20;2.80;;;2.70;;
6985;SDS011;3533;51.246;6.850;2022-08-11T00:11:55;2.30;;;2.20;;
6985;SDS011;3533;51.246;6.850;2022-08-11T00:14:25;2.77;;;2.67;;
6985;SDS011;3533;51.246;6.850;2022-08-11T00:17:01;3.17;;;2.80;;
6985;SDS011;3533;51.246;6.850;2022-08-11T00:19:30;2.60;;;2.50;;
6985;SDS011;3533;51.246;6.850;2022-08-11T00:21:58;2.63;;;2.50;;
6985;SDS011;3533;51.246;6.850;2022-08-11T00:24:30;2.83;;;2.63;;
6985;SDS011;3533;51.246;6.850;2022-08-11T00:26:58;2.47;;;2.37;;
6985;SDS011;3533;51.246;6.850;2022-08-11T00:29:23;2.70;;;2.50;;
6985;SDS011;3533;51.246;6.850;2022-08-11T00:31:51;3.00;;;2.90;;
6985;SDS011;3533;51.246;6.850;2022-08-11T00:34:19;2.80;;;2.70;;
6985;SDS011;3533;51.246;6.850;2022-08-11T00:36:51;2.80;;;2.70;;
6985;SDS011;3533;51.246;6.850;2022-08-11T00:39:30;2.40;;;2.30;;
6985;SDS011;3533;51.246;6.850;2022-08-11T00:42:03;2.97;;;2.73;;
6985;SDS011;3533;51.246;6.850;2022-08-11T00:48:21;2.70;;;2.60;;
6985;SDS011;3533;51.246;6.850;2022-08-11T00:50:47;2.40;;;2.30;;
6985;SDS011;3533;51.246;6.850;2022-08-11T01:07:17;2.67;;;2.57;;
6985;SDS011;3533;51.246;6.850;2022-08-11T01:13:08;2.80;;;2.70;;
6985;SDS011;3533;51.246;6.850;2022-08-11T01:16:11;2.70;;;2.60;;
6985;SDS011;3533;51.246;6.850;2022-08-11T01:27:44;2.67;;;2.57;;
6985;SDS011;3533;51.246;6.850;2022-08-11T01:35:43;3.23;;;2.20;;
6985;SDS011;3533;51.246;6.850;2022-08-11T01:52:50;2.63;;;2.53;;
6985;SDS011;3533;51.246;6.850;2022-08-11T02:01:10;3.47;;;3.27;;
6985;SDS011;3533;51.246;6.850;2022-08-11T02:03:42;2.70;;;2.60;;
6985;SDS011;3533;51.246;6.850;2022-08-11T02:06:29;2.50;;;2.40;;
6985;SDS011;3533;51.246;6.850;2022-08-11T02:09:39;2.70;;;2.60;;
6985;SDS011;3533;51.246;6.850;2022-08-11T02:12:11;2.60;;;2.50;;
6985;SDS011;3533;51.246;6.850;2022-08-11T02:15:03;2.47;;;2.37;;
6985;SDS011;3533;51.246;6.850;2022-08-11T02:20:50;2.73;;;2.63;;
6985;SDS011;3533;51.246;6.850;2022-08-11T02:23:44;2.63;;;2.53;;
6985;SDS011;3533;51.246;6.850;2022-08-11T02:29:32;2.40;;;2.30;;
6985;SDS011;3533;51.246;6.850;2022-08-11T02:35:14;2.30;;;2.20;;
6985;SDS011;3533;51.246;6.850;2022-08-11T02:38:17;2.80;;;2.40;;
6985;SDS011;3533;51.246;6.850;2022-08-11T02:43:55;2.67;;;2.57;;
6985;SDS011;3533;51.246;6.850;2022-08-11T02:46:38;2.50;;;2.40;;
6985;SDS011;3533;51.246;6.850;2022-08-11T02:49:41;2.13;;;2.03;;
6985;SDS011;3533;51.246;6.850;2022-08-11T02:52:33;2.17;;;2.07;;
6985;SDS011;3533;51.246;6.850;2022-08-11T02:57:58;2.50;;;2.30;;
6985;SDS011;3533;51.246;6.850;2022-08-11T03:00:40;2.87;;;2.77;;
6985;SDS011;3533;51.246;6.850;2022-08-11T03:03:14;2.53;;;2.43;;
6985;SDS011;3533;51.246;6.850;2022-08-11T03:05:55;2.30;;;2.20;;
6985;SDS011;3533;51.246;6.850;2022-08-11T03:20:37;2.70;;;2.60;;
6985;SDS011;3533;51.246;6.850;2022-08-11T03:23:30;2.40;;;2.30;;
6985;SDS011;3533;51.246;6.850;2022-08-11T03:26:00;2.40;;;2.30;;
6985;SDS011;3533;51.246;6.850;2022-08-11T03:28:31;2.33;;;2.23;;
6985;SDS011;3533;51.246;6.850;2022-08-11T03:31:21;2.67;;;2.53;;
6985;SDS011;3533;51.246;6.850;2022-08-11T03:33:53;2.60;;;2.40;;
6985;SDS011;3533;51.246;6.850;2022-08-11T03:36:43;2.80;;;2.70;;
6985;SDS011;3533;51.246;6.850;2022-08-11T03:45:27;2.30;;;2.20;;
6985;SDS011;3533;51.246;6.850;2022-08-11T03:48:26;2.40;;;2.30;;
6985;SDS011;3533;51.246;6.850;2022-08-11T03:51:17;3.07;;;2.87;;
6985;SDS011;3533;51.246;6.850;2022-08-11T03:54:02;2.20;;;2.10;;
6985;SDS011;3533;51.246;6.850;2022-08-11T04:02:29;2.33;;;2.23;;
6985;SDS011;3533;51.246;6.850;2022-08-11T04:22:21;2.37;;;2.27;;
6985;SDS011;3533;51.246;6.850;2022-08-11T04:28:02;2.63;;;2.53;;
6985;SDS011;3533;51.246;6.850;2022-08-11T04:36:54;2.77;;;2.57;;
6985;SDS011;3533;51.246;6.850;2022-08-11T04:46:00;3.20;;;2.43;;
6985;SDS011;3533;51.246;6.850;2022-08-11T05:12:43;2.47;;;2.37;;
6985;SDS011;3533;51.246;6.850;2022-08-11T05:15:11;2.00;;;1.90;;
6985;SDS011;3533;51.246;6.850;2022-08-11T05:18:19;2.50;;;2.40;;
6985;SDS011;3533;51.246;6.850;2022-08-11T05:21:07;2.30;;;2.20;;
6985;SDS011;3533;51.246;6.850;2022-08-11T05:23:56;2.20;;;2.10;;
6985;SDS011;3533;51.246;6.850;2022-08-11T05:26:48;2.40;;;2.30;;
6985;SDS011;3533;51.246;6.850;2022-08-11T05:29:38;2.47;;;2.27;;
6985;SDS011;3533;51.246;6.850;2022-08-11T05:32:22;2.47;;;2.23;;
6985;SDS011;3533;51.246;6.850;2022-08-11T05:35:10;2.90;;;2.63;;
6985;SDS011;3533;51.246;6.850;2022-08-11T05:37:41;2.50;;;2.30;;
6985;SDS011;3533;51.246;6.850;2022-08-11T05:40:27;4.30;;;2.90;;
6985;SDS011;3533;51.246;6.850;2022-08-11T05:43:13;2.23;;;2.03;;
6985;SDS011;3533;51.246;6.850;2022-08-11T05:46:02;2.47;;;2.37;;
6985;SDS011;3533;51.246;6.850;2022-08-11T05:48:49;2.33;;;2.23;;
6985;SDS011;3533;51.246;6.850;2022-08-11T05:51:35;2.37;;;2.27;;
6985;SDS011;3533;51.246;6.850;2022-08-11T05:54:23;2.60;;;2.40;;
6985;SDS011;3533;51.246;6.850;2022-08-11T05:57:09;2.10;;;2.00;;
6985;SDS011;3533;51.246;6.850;2022-08-11T05:59:47;2.30;;;2.20;;
6985;SDS011;3533;51.246;6.850;2022-08-11T06:02:13;2.47;;;2.37;;
6985;SDS011;3533;51.246;6.850;2022-08-11T06:04:40;2.33;;;2.13;;
6985;SDS011;3533;51.246;6.850;2022-08-11T06:07:10;2.63;;;2.33;;
6985;SDS011;3533;51.246;6.850;2022-08-11T06:09:48;2.20;;;2.10;;
6985;SDS011;3533;51.246;6.850;2022-08-11T06:12:16;2.73;;;2.53;;
6985;SDS011;3533;51.246;6.850;2022-08-11T06:15:00;2.67;;;2.47;;
6985;SDS011;3533;51.246;6.850;2022-08-11T06:17:31;2.30;;;2.10;;
6985;SDS011;3533;51.246;6.850;2022-08-11T06:20:04;3.50;;;2.27;;
6985;SDS011;3533;51.246;6.850;2022-08-11T06:22:33;2.20;;;2.10;;
6985;SDS011;3533;51.246;6.850;2022-08-11T06:25:00;2.40;;;2.20;;
6985;SDS011;3533;51.246;6.850;2022-08-11T06:27:28;2.70;;;2.60;;
6985;SDS011;3533;51.246;6.850;2022-08-11T06:29:56;3.57;;;2.23;;
6985;SDS011;3533;51.246;6.850;2022-08-11T06:32:30;2.30;;;2.20;;
6985;SDS011;3533;51.246;6.850;2022-08-11T06:35:04;2.60;;;2.50;;
6985;SDS011;3533;51.246;6.850;2022-08-11T06:37:38;2.50;;;2.40;;
6985;SDS011;3533;51.246;6.850;2022-08-11T06:40:37;2.50;;;2.40;;
6985;SDS011;3533;51.246;6.850;2022-08-11T06:43:10;2.70;;;2.53;;
6985;SDS011;3533;51.246;6.850;2022-08-11T06:48:21;3.13;;;2.07;;
6985;SDS011;3533;51.246;6.850;2022-08-11T06:50:49;2.50;;;2.40;;
6985;SDS011;3533;51.246;6.850;2022-08-11T06:56:23;2.67;;;2.47;;
6985;SDS011;3533;51.246;6.850;2022-08-11T06:59:10;2.83;;;2.73;;
6985;SDS011;3533;51.246;6.850;2022-08-11T07:13:35;3.47;;;2.63;;
6985;SDS011;3533;51.246;6.850;2022-08-11T07:16:24;3.27;;;3.07;;
6985;SDS011;3533;51.246;6.850;2022-08-11T07:18:54;5.60;;;3.73;;
6985;SDS011;3533;51.246;6.850;2022-08-11T07:21:42;7.13;;;4.17;;
6985;SDS011;3533;51.246;6.850;2022-08-11T07:24:39;7.20;;;3.60;;
6985;SDS011;3533;51.246;6.850;2022-08-11T07:27:27;5.13;;;4.10;;
6985;SDS011;3533;51.246;6.850;2022-08-11T07:30:40;5.37;;;3.37;;
6985;SDS011;3533;51.246;6.850;2022-08-11T07:33:06;4.30;;;3.70;;
6985;SDS011;3533;51.246;6.850;2022-08-11T07:35:51;5.33;;;3.60;;
6985;SDS011;3533;51.246;6.850;2022-08-11T07:38:21;5.73;;;4.07;;
6985;SDS011;3533;51.246;6.850;2022-08-11T07:41:07;5.53;;;4.10;;
6985;SDS011;3533;51.246;6.850;2022-08-11T07:43:47;5.13;;;4.10;;
6985;SDS011;3533;51.246;6.850;2022-08-11T07:46:15;5.70;;;4.27;;
6985;SDS011;3533;51.246;6.850;2022-08-11T07:49:02;7.50;;;4.70;;
6985;SDS011;3533;51.246;6.850;2022-08-11T07:51:47;10.40;;;4.60;;
6985;SDS011;3533;51.246;6.850;2022-08-11T07:54:32;11.70;;;4.80;;
6985;SDS011;3533;51.246;6.850;2022-08-11T07:57:00;6.03;;;4.40;;
6985;SDS011;3533;51.246;6.850;2022-08-11T07:59:47;5.57;;;4.83;;
6985;SDS011;3533;51.246;6.850;2022-08-11T08:02:32;5.00;;;4.60;;
6985;SDS011;3533;51.246;6.850;2022-08-11T08:05:18;6.17;;;4.90;;
6985;SDS011;3533;51.246;6.850;2022-08-11T08:08:03;5.53;;;4.70;;
6985;SDS011;3533;51.246;6.850;2022-08-11T08:10:50;5.63;;;5.10;;
6985;SDS011;3533;51.246;6.850;2022-08-11T08:13:34;6.67;;;4.90;;
6985;SDS011;3533;51.246;6.850;2022-08-11T08:16:20;8.40;;;5.40;;
6985;SDS011;3533;51.246;6.850;2022-08-11T08:19:04;5.27;;;4.87;;
6985;SDS011;3533;51.246;6.850;2022-08-11T08:21:30;10.13;;;5.17;;
6985;SDS011;3533;51.246;6.850;2022-08-11T08:23:56;5.60;;;4.93;;
6985;SDS011;3533;51.246;6.850;2022-08-11T08:26:22;5.27;;;4.77;;
6985;SDS011;3533;51.246;6.850;2022-08-11T08:29:08;8.83;;;4.77;;
6985;SDS011;3533;51.246;6.850;2022-08-11T08:31:52;11.70;;;5.50;;
6985;SDS011;3533;51.246;6.850;2022-08-11T08:34:20;5.53;;;5.00;;
6985;SDS011;3533;51.246;6.850;2022-08-11T08:36:49;7.43;;;5.23;;
6985;SDS011;3533;51.246;6.850;2022-08-11T08:39:19;5.47;;;4.73;;
6985;SDS011;3533;51.246;6.850;2022-08-11T08:41:46;5.60;;;5.10;;
6985;SDS011;3533;51.246;6.850;2022-08-11T08:44:16;5.97;;;5.07;;
6985;SDS011;3533;51.246;6.850;2022-08-11T08:46:44;6.00;;;4.73;;
6985;SDS011;3533;51.246;6.850;2022-08-11T08:49:14;7.27;;;4.97;;
6985;SDS011;3533;51.246;6.850;2022-08-11T08:51:42;4.83;;;4.50;;
6985;SDS011;3533;51.246;6.850;2022-08-11T08:54:12;6.00;;;4.97;;
6985;SDS011;3533;51.246;6.850;2022-08-11T08:56:41;8.27;;;5.50;;
6985;SDS011;3533;51.246;6.850;2022-08-11T08:59:08;7.60;;;5.60;;
6985;SDS011;3533;51.246;6.850;2022-08-11T09:01:39;8.10;;;5.10;;
6985;SDS011;3533;51.246;6.850;2022-08-11T09:04:09;6.03;;;5.30;;
6985;SDS011;3533;51.246;6.850;2022-08-11T09:06:37;6.00;;;5.50;;
6985;SDS011;3533;51.246;6.850;2022-08-11T09:09:04;6.00;;;5.50;;
6985;SDS011;3533;51.246;6.850;2022-08-11T09:11:33;5.83;;;4.50;;
6985;SDS011;3533;51.246;6.850;2022-08-11T09:14:14;5.10;;;4.80;;
6985;SDS011;3533;51.246;6.850;2022-08-11T09:16:49;6.73;;;5.90;;
6985;SDS011;3533;51.246;6.850;2022-08-11T09:19:17;5.63;;;5.13;;
6985;SDS011;3533;51.246;6.850;2022-08-11T09:21:45;6.73;;;5.70;;
6985;SDS011;3533;51.246;6.850;2022-08-11T09:24:32;6.23;;;5.40;;
6985;SDS011;3533;51.246;6.850;2022-08-11T09:27:18;6.30;;;5.50;;
6985;SDS011;3533;51.246;6.850;2022-08-11T09:29:45;5.50;;;5.10;;
6985;SDS011;3533;51.246;6.850;2022-08-11T09:32:11;6.37;;;5.87;;
6985;SDS011;3533;51.246;6.850;2022-08-11T09:34:38;6.30;;;5.70;;
6985;SDS011;3533;51.246;6.850;2022-08-11T09:37:05;5.80;;;5.30;;
6985;SDS011;3533;51.246;6.850;2022-08-11T09:39:52;6.03;;;5.63;;
6985;SDS011;3533;51.246;6.850;2022-08-11T09:42:38;6.30;;;5.57;;
6985;SDS011;3533;51.246;6.850;2022-08-11T09:45:24;6.97;;;5.97;;
6985;SDS011;3533;51.246;6.850;2022-08-11T09:47:50;5.80;;;5.30;;
6985;SDS011;3533;51.246;6.850;2022-08-11T09:50:17;5.57;;;5.10;;
6985;SDS011;3533;51.246;6.850;2022-08-11T09:52:43;6.40;;;5.80;;
6985;SDS011;3533;51.246;6.850;2022-08-11T09:55:10;5.50;;;5.13;;
6985;SDS011;3533;51.246;6.850;2022-08-11T09:57:39;5.47;;;5.07;;
6985;SDS011;3533;51.246;6.850;2022-08-11T10:00:28;6.03;;;5.63;;
6985;SDS011;3533;51.246;6.850;2022-08-11T10:02:56;6.00;;;5.60;;
6985;SDS011;3533;51.246;6.850;2022-08-11T10:05:22;6.23;;;5.80;;
6985;SDS011;3533;51.246;6.850;2022-08-11T10:08:10;6.13;;;5.63;;
6985;SDS011;3533;51.246;6.850;2022-08-11T10:10:38;6.27;;;5.77;;
6985;SDS011;3533;51.246;6.850;2022-08-11T10:13:05;5.43;;;5.03;;
6985;SDS011;3533;51.246;6.850;2022-08-11T10:15:38;6.07;;;5.33;;
6985;SDS011;3533;51.246;6.850;2022-08-11T10:18:09;5.37;;;4.87;;
6985;SDS011;3533;51.246;6.850;2022-08-11T10:20:57;5.33;;;4.70;;
6985;SDS011;3533;51.246;6.850;2022-08-11T10:23:26;5.07;;;4.70;;
6985;SDS011;3533;51.246;6.850;2022-08-11T10:26:15;5.87;;;5.43;;
6985;SDS011;3533;51.246;6.850;2022-08-11T10:29:02;5.70;;;5.20;;
6985;SDS011;3533;51.246;6.850;2022-08-11T10:31:54;5.60;;;5.13;;
6985;SDS011;3533;51.246;6.850;2022-08-11T10:34:39;4.63;;;4.33;;
6985;SDS011;3533;51.246;6.850;2022-08-11T10:37:07;5.67;;;5.27;;
6985;SDS011;3533;51.246;6.850;2022-08-11T10:39:33;4.00;;;3.70;;
6985;SDS011;3533;51.246;6.850;2022-08-11T10:41:59;5.80;;;5.40;;
6985;SDS011;3533;51.246;6.850;2022-08-11T10:44:46;3.90;;;3.60;;
6985;SDS011;3533;51.246;6.850;2022-08-11T10:47:14;4.90;;;4.70;;
6985;SDS011;3533;51.246;6.850;2022-08-11T10:50:18;4.50;;;4.20;;
6985;SDS011;3533;51.246;6.850;2022-08-11T10:53:02;5.00;;;4.60;;
6985;SDS011;3533;51.246;6.850;2022-08-11T10:55:47;6.03;;;5.50;;
6985;SDS011;3533;51.246;6.850;2022-08-11T10:58:32;5.20;;;4.77;;
6985;SDS011;3533;51.246;6.850;2022-08-11T11:03:51;5.53;;;5.10;;
6985;SDS011;3533;51.246;6.850;2022-08-11T11:06:35;5.97;;;5.53;;
6985;SDS011;3533;51.246;6.850;2022-08-11T11:09:12;5.30;;;5.00;;
6985;SDS011;3533;51.246;6.850;2022-08-11T11:11:49;5.60;;;5.20;;
6985;SDS011;3533;51.246;6.850;2022-08-11T11:14:35;5.87;;;5.37;;
6985;SDS011;3533;51.246;6.850;2022-08-11T11:17:34;6.10;;;5.37;;
6985;SDS011;3533;51.246;6.850;2022-08-11T11:20:39;6.30;;;5.90;;
6985;SDS011;3533;51.246;6.850;2022-08-11T11:28:58;5.97;;;5.53;;
6985;SDS011;3533;51.246;6.850;2022-08-11T11:37:23;5.77;;;5.27;;
6985;SDS011;3533;51.246;6.850;2022-08-11T11:39:49;6.03;;;5.60;;
6985;SDS011;3533;51.246;6.850;2022-08-11T11:42:17;5.00;;;4.47;;
6985;SDS011;3533;51.246;6.850;2022-08-11T11:44:43;5.40;;;5.10;;
6985;SDS011;3533;51.246;6.850;2022-08-11T11:47:10;6.10;;;5.60;;
6985;SDS011;3533;51.246;6.850;2022-08-11T11:49:37;5.10;;;4.80;;
6985;SDS011;3533;51.246;6.850;2022-08-11T11:52:05;5.70;;;5.40;;
6985;SDS011;3533;51.246;6.850;2022-08-11T11:54:32;6.47;;;5.53;;
6985;SDS011;3533;51.246;6.850;2022-08-11T11:57:00;4.77;;;4.47;;
6985;SDS011;3533;51.246;6.850;2022-08-11T11:59:47;5.87;;;5.27;;
6985;SDS011;3533;51.246;6.850;2022-08-11T12:02:32;5.73;;;5.43;;
6985;SDS011;3533;51.246;6.850;2022-08-11T12:05:00;5.87;;;5.47;;
6985;SDS011;3533;51.246;6.850;2022-08-11T12:07:27;5.50;;;5.10;;
6985;SDS011;3533;51.246;6.850;2022-08-11T12:10:15;5.10;;;4.80;;
6985;SDS011;3533;51.246;6.850;2022-08-11T12:12:41;5.60;;;5.20;;
6985;SDS011;3533;51.246;6.850;2022-08-11T12:15:26;4.97;;;4.57;;
6985;SDS011;3533;51.246;6.850;2022-08-11T12:17:53;5.50;;;5.20;;
6985;SDS011;3533;51.246;6.850;2022-08-11T12:20:20;5.73;;;5.43;;
6985;SDS011;3533;51.246;6.850;2022-08-11T12:22:47;5.37;;;4.97;;
6985;SDS011;3533;51.246;6.850;2022-08-11T12:25:33;5.40;;;5.00;;
6985;SDS011;3533;51.246;6.850;2022-08-11T12:28:18;5.30;;;5.00;;
6985;SDS011;3533;51.246;6.850;2022-08-11T12:30:46;6.30;;;5.70;;
6985;SDS011;3533;51.246;6.850;2022-08-11T12:33:14;6.73;;;6.00;;
6985;SDS011;3533;51.246;6.850;2022-08-11T12:35:40;5.73;;;5.43;;
6985;SDS011;3533;51.246;6.850;2022-08-11T12:38:07;5.87;;;5.50;;
6985;SDS011;3533;51.246;6.850;2022-08-11T12:40:34;5.13;;;4.83;;
6985;SDS011;3533;51.246;6.850;2022-08-11T12:43:21;5.53;;;5.20;;
6985;SDS011;3533;51.246;6.850;2022-08-11T12:46:15;6.30;;;5.90;;
6985;SDS011;3533;51.246;6.850;2022-08-11T12:48:46;6.13;;;5.83;;
6985;SDS011;3533;51.246;6.850;2022-08-11T12:51:37;5.13;;;4.90;;
6985;SDS011;3533;51.246;6.850;2022-08-11T12:57:17;5.60;;;5.30;;
6985;SDS011;3533;51.246;6.850;2022-08-11T13:00:08;5.60;;;5.30;;
6985;SDS011;3533;51.246;6.850;2022-08-11T13:02:53;5.40;;;5.10;;
6985;SDS011;3533;51.246;6.850;2022-08-11T13:05:39;5.80;;;5.40;;
6985;SDS011;3533;51.246;6.850;2022-08-11T13:08:06;5.97;;;5.57;;
6985;SDS011;3533;51.246;6.850;2022-08-11T13:10:32;5.33;;;5.03;;
6985;SDS011;3533;51.246;6.850;2022-08-11T13:13:17;5.50;;;5.20;;
6985;SDS011;3533;51.246;6.850;2022-08-11T13:15:47;6.43;;;5.93;;
6985;SDS011;3533;51.246;6.850;2022-08-11T13:18:16;6.30;;;6.00;;
6985;SDS011;3533;51.246;6.850;2022-08-11T13:20:47;6.20;;;5.90;;
6985;SDS011;3533;51.246;6.850;2022-08-11T13:23:16;6.40;;;6.10;;
6985;SDS011;3533;51.246;6.850;2022-08-11T13:25:41;6.57;;;6.20;;
6985;SDS011;3533;51.246;6.850;2022-08-11T13:28:08;5.70;;;5.40;;
6985;SDS011;3533;51.246;6.850;2022-08-11T13:30:36;7.00;;;6.53;;
6985;SDS011;3533;51.246;6.850;2022-08-11T13:33:21;6.10;;;5.70;;
6985;SDS011;3533;51.246;6.850;2022-08-11T13:35:50;6.20;;;5.90;;
6985;SDS011;3533;51.246;6.850;2022-08-11T13:38:18;7.27;;;6.87;;
6985;SDS011;3533;51.246;6.850;2022-08-11T13:40:46;7.70;;;7.20;;
6985;SDS011;3533;51.246;6.850;2022-08-11T13:43:13;6.73;;;6.33;;
6985;SDS011;3533;51.246;6.850;2022-08-11T13:45:42;7.23;;;6.83;;
6985;SDS011;3533;51.246;6.850;2022-08-11T13:48:11;7.23;;;6.83;;
6985;SDS011;3533;51.246;6.850;2022-08-11T13:50:37;6.67;;;6.27;;
6985;SDS011;3533;51.246;6.850;2022-08-11T13:53:30;7.13;;;6.73;;
6985;SDS011;3533;51.246;6.850;2022-08-11T13:56:12;6.90;;;6.50;;
6985;SDS011;3533;51.246;6.850;2022-08-11T13:58:38;6.50;;;6.20;;
6985;SDS011;3533;51.246;6.850;2022-08-11T14:01:04;7.30;;;6.90;;
6985;SDS011;3533;51.246;6.850;2022-08-11T14:03:31;7.30;;;6.80;;
6985;SDS011;3533;51.246;6.850;2022-08-11T14:05:58;7.27;;;6.87;;
6985;SDS011;3533;51.246;6.850;2022-08-11T14:08:28;6.73;;;6.33;;
6985;SDS011;3533;51.246;6.850;2022-08-11T14:11:00;6.00;;;5.70;;
6985;SDS011;3533;51.246;6.850;2022-08-11T14:13:45;6.20;;;5.90;;
6985;SDS011;3533;51.246;6.850;2022-08-11T14:16:15;6.00;;;5.50;;
6985;SDS011;3533;51.246;6.850;2022-08-11T14:18:50;6.27;;;5.93;;
6985;SDS011;3533;51.246;6.850;2022-08-11T14:21:18;6.20;;;5.90;;
6985;SDS011;3533;51.246;6.850;2022-08-11T14:24:06;6.40;;;6.10;;
6985;SDS011;3533;51.246;6.850;2022-08-11T14:26:35;6.30;;;6.00;;
6985;SDS011;3533;51.246;6.850;2022-08-11T14:29:14;6.17;;;5.87;;
6985;SDS011;3533;51.246;6.850;2022-08-11T14:31:45;6.87;;;6.37;;
6985;SDS011;3533;51.246;6.850;2022-08-11T14:34:12;6.40;;;6.10;;
6985;SDS011;3533;51.246;6.850;2022-08-11T14:36:43;5.80;;;5.60;;
6985;SDS011;3533;51.246;6.850;2022-08-11T14:39:11;7.10;;;6.80;;
6985;SDS011;3533;51.246;6.850;2022-08-11T14:41:54;6.50;;;6.20;;
6985;SDS011;3533;51.246;6.850;2022-08-11T14:45:00;7.13;;;6.73;;
6985;SDS011;3533;51.246;6.850;2022-08-11T14:47:51;6.80;;;6.50;;
6985;SDS011;3533;51.246;6.850;2022-08-11T14:50:22;6.60;;;6.30;;
6985;SDS011;3533;51.246;6.850;2022-08-11T14:52:51;7.00;;;6.40;;
6985;SDS011;3533;51.246;6.850;2022-08-11T14:55:21;7.27;;;6.87;;
6985;SDS011;3533;51.246;6.850;2022-08-11T14:58:07;7.60;;;7.20;;
6985;SDS011;3533;51.246;6.850;2022-08-11T15:00:34;6.43;;;6.13;;
6985;SDS011;3533;51.246;6.850;2022-08-11T15:03:02;6.73;;;6.43;;
6985;SDS011;3533;51.246;6.850;2022-08-11T15:08:12;6.60;;;6.20;;
6985;SDS011;3533;51.246;6.850;2022-08-11T15:10:38;6.30;;;6.00;;
6985;SDS011;3533;51.246;6.850;2022-08-11T15:13:04;7.27;;;6.97;;
6985;SDS011;3533;51.246;6.850;2022-08-11T15:15:30;6.67;;;6.37;;
6985;SDS011;3533;51.246;6.850;2022-08-11T15:18:17;7.73;;;7.20;;
6985;SDS011;3533;51.246;6.850;2022-08-11T15:20:45;12.50;;;6.90;;
6985;SDS011;3533;51.246;6.850;2022-08-11T15:23:29;7.73;;;7.00;;
6985;SDS011;3533;51.246;6.850;2022-08-11T15:26:15;8.67;;;7.70;;
6985;SDS011;3533;51.246;6.850;2022-08-11T15:28:47;8.47;;;7.70;;
6985;SDS011;3533;51.246;6.850;2022-08-11T15:31:33;7.93;;;7.33;;
6985;SDS011;3533;51.246;6.850;2022-08-11T15:34:20;7.90;;;7.30;;
6985;SDS011;3533;51.246;6.850;2022-08-11T15:37:08;7.90;;;7.40;;
6985;SDS011;3533;51.246;6.850;2022-08-11T15:39:51;6.87;;;6.20;;
6985;SDS011;3533;51.246;6.850;2022-08-11T15:43:01;7.43;;;6.80;;
6985;SDS011;3533;51.246;6.850;2022-08-11T15:45:48;8.00;;;7.20;;
6985;SDS011;3533;51.246;6.850;2022-08-11T15:48:26;7.43;;;6.93;;
6985;SDS011;3533;51.246;6.850;2022-08-11T15:53:49;8.57;;;6.63;;
6985;SDS011;3533;51.246;6.850;2022-08-11T15:56:24;7.40;;;6.80;;
6985;SDS011;3533;51.246;6.850;2022-08-11T15:58:52;7.57;;;7.07;;
6985;SDS011;3533;51.246;6.850;2022-08-11T16:01:40;7.07;;;6.67;;
6985;SDS011;3533;51.246;6.850;2022-08-11T16:04:27;9.00;;;6.80;;
6985;SDS011;3533;51.246;6.850;2022-08-11T16:07:02;10.10;;;6.97;;
6985;SDS011;3533;51.246;6.850;2022-08-11T16:12:24;7.30;;;6.73;;
6985;SDS011;3533;51.246;6.850;2022-08-11T16:15:29;6.57;;;6.20;;
6985;SDS011;3533;51.246;6.850;2022-08-11T16:18:30;6.83;;;6.43;;
6985;SDS011;3533;51.246;6.850;2022-08-11T16:21:17;7.17;;;6.57;;
6985;SDS011;3533;51.246;6.850;2022-08-11T16:24:09;6.37;;;6.07;;
6985;SDS011;3533;51.246;6.850;2022-08-11T16:26:38;6.53;;;6.13;;
6985;SDS011;3533;51.246;6.850;2022-08-11T16:32:17;6.87;;;6.47;;
6985;SDS011;3533;51.246;6.850;2022-08-11T16:41:12;6.13;;;5.83;;
6985;SDS011;3533;51.246;6.850;2022-08-11T16:44:05;6.53;;;6.07;;
6985;SDS011;3533;51.246;6.850;2022-08-11T16:46:57;6.60;;;6.30;;
6985;SDS011;3533;51.246;6.850;2022-08-11T16:49:42;6.77;;;6.47;;
6985;SDS011;3533;51.246;6.850;2022-08-11T16:57:47;6.60;;;6.30;;
6985;SDS011;3533;51.246;6.850;2022-08-11T17:00:53;6.70;;;6.30;;
6985;SDS011;3533;51.246;6.850;2022-08-11T17:03:22;7.23;;;6.63;;
6985;SDS011;3533;51.246;6.850;2022-08-11T17:06:07;7.43;;;7.03;;
6985;SDS011;3533;51.246;6.850;2022-08-11T17:11:58;6.50;;;6.10;;
6985;SDS011;3533;51.246;6.850;2022-08-11T17:17:53;7.30;;;6.90;;
6985;SDS011;3533;51.246;6.850;2022-08-11T17:24:25;7.17;;;6.77;;
6985;SDS011;3533;51.246;6.850;2022-08-11T17:27:12;7.00;;;6.53;;
6985;SDS011;3533;51.246;6.850;2022-08-11T17:35:24;6.30;;;6.03;;
6985;SDS011;3533;51.246;6.850;2022-08-11T17:43:49;7.17;;;6.57;;
6985;SDS011;3533;51.246;6.850;2022-08-11T17:46:38;6.40;;;6.10;;
6985;SDS011;3533;51.246;6.850;2022-08-11T17:49:58;7.33;;;6.93;;
6985;SDS011;3533;51.246;6.850;2022-08-11T17:55:30;7.30;;;6.90;;
6985;SDS011;3533;51.246;6.850;2022-08-11T17:58:33;6.50;;;6.20;;
6985;SDS011;3533;51.246;6.850;2022-08-11T18:01:18;7.30;;;7.00;;
6985;SDS011;3533;51.246;6.850;2022-08-11T18:09:51;6.80;;;6.50;;
6985;SDS011;3533;51.246;6.850;2022-08-11T18:15:40;6.83;;;6.40;;
6985;SDS011;3533;51.246;6.850;2022-08-11T18:18:26;7.03;;;6.73;;
6985;SDS011;3533;51.246;6.850;2022-08-11T18:21:12;6.83;;;6.33;;
6985;SDS011;3533;51.246;6.850;2022-08-11T18:24:03;7.47;;;7.10;;
6985;SDS011;3533;51.246;6.850;2022-08-11T18:27:10;6.40;;;6.10;;
6985;SDS011;3533;51.246;6.850;2022-08-11T18:29:59;6.83;;;6.53;;
6985;SDS011;3533;51.246;6.850;2022-08-11T18:32:46;6.63;;;6.23;;
6985;SDS011;3533;51.246;6.850;2022-08-11T18:35:34;6.77;;;6.37;;
6985;SDS011;3533;51.246;6.850;2022-08-11T18:38:19;7.00;;;6.60;;
6985;SDS011;3533;51.246;6.850;2022-08-11T18:41:08;6.93;;;6.63;;
6985;SDS011;3533;51.246;6.850;2022-08-11T18:43:54;6.93;;;6.63;;
6985;SDS011;3533;51.246;6.850;2022-08-11T18:46:42;6.20;;;5.70;;
6985;SDS011;3533;51.246;6.850;2022-08-11T18:49:30;6.10;;;5.80;;
6985;SDS011;3533;51.246;6.850;2022-08-11T18:52:18;6.43;;;6.13;;
6985;SDS011;3533;51.246;6.850;2022-08-11T18:55:04;6.40;;;6.10;;
6985;SDS011;3533;51.246;6.850;2022-08-11T18:57:53;6.57;;;6.27;;
6985;SDS011;3533;51.246;6.850;2022-08-11T19:00:39;6.43;;;6.03;;
6985;SDS011;3533;51.246;6.850;2022-08-11T19:03:25;6.00;;;5.70;;
6985;SDS011;3533;51.246;6.850;2022-08-11T19:06:11;6.57;;;6.27;;
6985;SDS011;3533;51.246;6.850;2022-08-11T19:09:01;6.50;;;6.20;;
6985;SDS011;3533;51.246;6.850;2022-08-11T19:11:49;6.17;;;5.97;;
6985;SDS011;3533;51.246;6.850;2022-08-11T19:14:34;6.43;;;6.13;;
6985;SDS011;3533;51.246;6.850;2022-08-11T19:17:20;6.00;;;5.70;;
6985;SDS011;3533;51.246;6.850;2022-08-11T19:20:18;6.33;;;6.03;;
6985;SDS011;3533;51.246;6.850;2022-08-11T19:23:05;6.60;;;6.10;;
6985;SDS011;3533;51.246;6.850;2022-08-11T19:25:52;6.00;;;5.70;;
6985;SDS011;3533;51.246;6.850;2022-08-11T19:28:38;6.33;;;6.10;;
6985;SDS011;3533;51.246;6.850;2022-08-11T19:31:26;6.10;;;5.80;;
6985;SDS011;3533;51.246;6.850;2022-08-11T19:34:15;5.20;;;5.00;;
6985;SDS011;3533;51.246;6.850;2022-08-11T19:37:02;5.87;;;5.57;;
6985;SDS011;3533;51.246;6.850;2022-08-11T19:39:48;5.80;;;5.50;;
6985;SDS011;3533;51.246;6.850;2022-08-11T19:42:34;5.73;;;5.43;;
6985;SDS011;3533;51.246;6.850;2022-08-11T19:45:19;5.43;;;5.13;;
6985;SDS011;3533;51.246;6.850;2022-08-11T19:48:04;5.63;;;5.33;;
6985;SDS011;3533;51.246;6.850;2022-08-11T19:50:48;5.10;;;4.90;;
6985;SDS011;3533;51.246;6.850;2022-08-11T19:53:34;5.53;;;5.33;;
6985;SDS011;3533;51.246;6.850;2022-08-11T19:56:20;5.00;;;4.80;;
6985;SDS011;3533;51.246;6.850;2022-08-11T19:59:05;5.00;;;4.80;;
6985;SDS011;3533;51.246;6.850;2022-08-11T20:01:50;5.30;;;5.00;;
6985;SDS011;3533;51.246;6.850;2022-08-11T20:04:35;5.07;;;4.87;;
6985;SDS011;3533;51.246;6.850;2022-08-11T20:07:19;5.40;;;5.10;;
6985;SDS011;3533;51.246;6.850;2022-08-11T20:10:03;5.47;;;5.17;;
6985;SDS011;3533;51.246;6.850;2022-08-11T20:12:49;6.10;;;5.80;;
6985;SDS011;3533;51.246;6.850;2022-08-11T20:15:35;5.30;;;5.10;;
6985;SDS011;3533;51.246;6.850;2022-08-11T20:18:21;5.87;;;5.67;;
6985;SDS011;3533;51.246;6.850;2022-08-11T20:21:07;5.43;;;5.13;;
6985;SDS011;3533;51.246;6.850;2022-08-11T20:23:53;5.23;;;5.03;;
6985;SDS011;3533;51.246;6.850;2022-08-11T20:26:39;5.33;;;5.13;;
6985;SDS011;3533;51.246;6.850;2022-08-11T20:29:25;5.37;;;5.10;;
6985;SDS011;3533;51.246;6.850;2022-08-11T20:32:13;5.00;;;4.80;;